createdAt,value
2018-06-22T00:00:08.795Z,1003.71
2018-06-22T00:01:08.819Z,1003.67
2018-06-22T00:02:08.794Z,1003.67
2018-06-22T00:03:08.795Z,1003.64
2018-06-22T00:04:08.801Z,1003.68
2018-06-22T00:05:08.793Z,1003.64
2018-06-22T00:06:08.796Z,1003.69
2018-06-22T00:07:08.794Z,1003.72
2018-06-22T00:08:08.793Z,1003.73
2018-06-22T00:09:08.798Z,1003.73
2018-06-22T00:10:08.793Z,1003.72
2018-06-22T00:11:08.798Z,1003.74
2018-06-22T00:12:08.795Z,1003.79
2018-06-22T00:13:08.795Z,1003.77
2018-06-22T00:14:08.792Z,1003.75
2018-06-22T00:15:08.796Z,1003.79
2018-06-22T00:16:08.796Z,1003.70
2018-06-22T00:17:08.792Z,1003.69
2018-06-22T00:18:08.792Z,1003.73
2018-06-22T00:19:08.795Z,1003.71
2018-06-22T00:20:08.795Z,1003.68
2018-06-22T00:21:08.791Z,1003.67
2018-06-22T00:22:08.791Z,1003.71
2018-06-22T00:23:08.791Z,1003.75
2018-06-22T00:24:08.790Z,1003.75
2018-06-22T00:25:08.790Z,1003.79
2018-06-22T00:26:08.792Z,1003.73
2018-06-22T00:27:08.791Z,1003.76
2018-06-22T00:28:08.792Z,1003.77
2018-06-22T00:29:08.789Z,1003.77
2018-06-22T00:30:08.791Z,1003.81
2018-06-22T00:31:08.789Z,1003.78
2018-06-22T00:32:08.791Z,1003.85
2018-06-22T00:33:08.793Z,1003.87
2018-06-22T00:34:08.787Z,1003.88
2018-06-22T00:35:08.788Z,1003.92
2018-06-22T00:36:08.789Z,1003.93
2018-06-22T00:37:08.787Z,1003.90
2018-06-22T00:38:08.787Z,1003.88
2018-06-22T00:39:08.789Z,1003.92
2018-06-22T00:40:08.788Z,1003.91
2018-06-22T00:41:08.787Z,1003.92
2018-06-22T00:42:08.790Z,1003.85
2018-06-22T00:43:08.791Z,1003.90
2018-06-22T00:44:08.785Z,1003.90
2018-06-22T00:45:08.784Z,1003.87
2018-06-22T00:46:08.784Z,1003.88
2018-06-22T00:47:08.796Z,1003.93
2018-06-22T00:48:08.787Z,1003.87
2018-06-22T00:49:08.784Z,1003.92
2018-06-22T00:50:08.782Z,1003.89
2018-06-22T00:51:08.782Z,1003.90
2018-06-22T00:52:08.784Z,1003.85
2018-06-22T00:53:08.784Z,1003.85
2018-06-22T00:54:08.781Z,1003.87
2018-06-22T00:55:08.780Z,1003.89
2018-06-22T00:56:08.781Z,1003.85
2018-06-22T00:57:08.779Z,1003.89
2018-06-22T00:58:08.777Z,1003.87
2018-06-22T00:59:08.777Z,1003.85
2018-06-22T01:00:08.779Z,1003.93
2018-06-22T01:01:08.777Z,1003.87
2018-06-22T01:02:08.777Z,1003.88
2018-06-22T01:03:08.777Z,1003.84
2018-06-22T01:04:08.781Z,1003.88
2018-06-22T01:05:08.775Z,1003.89
2018-06-22T01:06:08.774Z,1003.93
2018-06-22T01:07:08.780Z,1003.89
2018-06-22T01:08:08.774Z,1003.93
2018-06-22T01:09:08.770Z,1003.94
2018-06-22T01:10:08.771Z,1003.94
2018-06-22T01:11:08.781Z,1003.94
2018-06-22T01:12:08.769Z,1003.95
2018-06-22T01:13:08.769Z,1004.02
2018-06-22T01:14:08.768Z,1004.00
2018-06-22T01:15:08.767Z,1004.08
2018-06-22T01:16:08.767Z,1004.00
2018-06-22T01:17:08.766Z,1004.01
2018-06-22T01:18:08.765Z,1004.01
2018-06-22T01:19:08.763Z,1004.01
2018-06-22T01:20:08.765Z,1003.98
2018-06-22T01:21:08.761Z,1003.95
2018-06-22T01:22:08.774Z,1004.01
2018-06-22T01:23:08.761Z,1003.95
2018-06-22T01:24:08.762Z,1003.98
2018-06-22T01:25:08.761Z,1003.98
2018-06-22T01:26:08.761Z,1003.94
2018-06-22T01:27:08.760Z,1003.91
2018-06-22T01:28:08.759Z,1003.88
2018-06-22T01:29:08.756Z,1003.84
2018-06-22T01:30:08.756Z,1003.87
2018-06-22T01:31:08.756Z,1003.85
2018-06-22T01:32:08.764Z,1003.92
2018-06-22T01:33:08.761Z,1003.89
2018-06-22T01:34:08.760Z,1003.91
2018-06-22T01:35:08.753Z,1003.95
2018-06-22T01:36:08.749Z,1003.98
2018-06-22T01:37:08.746Z,1003.93
2018-06-22T01:38:08.746Z,1003.92
2018-06-22T01:39:08.744Z,1003.98
2018-06-22T01:40:08.745Z,1003.91
2018-06-22T01:41:08.743Z,1003.92
2018-06-22T01:42:08.741Z,1003.91
2018-06-22T01:43:08.743Z,1003.95
2018-06-22T01:44:08.740Z,1003.96
2018-06-22T01:45:08.738Z,1003.97
2018-06-22T01:46:08.738Z,1003.95
2018-06-22T01:47:08.749Z,1003.94
2018-06-22T01:48:08.735Z,1003.99
2018-06-22T01:49:08.735Z,1003.89
2018-06-22T01:50:08.733Z,1003.92
2018-06-22T01:51:08.733Z,1003.95
2018-06-22T01:52:08.731Z,1003.89
2018-06-22T01:53:08.728Z,1003.87
2018-06-22T01:54:08.728Z,1003.84
2018-06-22T01:55:08.728Z,1003.88
2018-06-22T01:56:08.727Z,1003.82
2018-06-22T01:57:08.724Z,1003.78
2018-06-22T01:58:08.727Z,1003.85
2018-06-22T01:59:08.722Z,1003.80
2018-06-22T02:00:08.724Z,1003.81
2018-06-22T02:01:08.720Z,1003.83
2018-06-22T02:02:08.717Z,1003.85
2018-06-22T02:03:08.718Z,1003.81
2018-06-22T02:04:08.717Z,1003.81
2018-06-22T02:05:08.714Z,1003.82
2018-06-22T02:06:08.716Z,1003.83
2018-06-22T02:07:08.722Z,1003.83
2018-06-22T02:08:08.713Z,1003.82
2018-06-22T02:09:08.710Z,1003.80
2018-06-22T02:10:08.713Z,1003.82
2018-06-22T02:11:08.728Z,1003.82
2018-06-22T02:12:08.706Z,1003.82
2018-06-22T02:13:08.704Z,1003.76
2018-06-22T02:14:08.703Z,1003.78
2018-06-22T02:15:08.712Z,1003.76
2018-06-22T02:16:08.704Z,1003.74
2018-06-22T02:17:08.699Z,1003.76
2018-06-22T02:18:08.697Z,1003.75
2018-06-22T02:19:08.696Z,1003.74
2018-06-22T02:20:08.697Z,1003.73
2018-06-22T02:21:08.692Z,1003.67
2018-06-22T02:22:08.691Z,1003.73
2018-06-22T02:23:08.690Z,1003.75
2018-06-22T02:24:08.690Z,1003.71
2018-06-22T02:25:08.688Z,1003.69
2018-06-22T02:26:08.687Z,1003.64
2018-06-22T02:27:08.684Z,1003.69
2018-06-22T02:28:08.685Z,1003.67
2018-06-22T02:29:08.682Z,1003.67
2018-06-22T02:30:08.702Z,1003.68
2018-06-22T02:31:08.679Z,1003.65
2018-06-22T02:32:08.679Z,1003.60
2018-06-22T02:33:08.674Z,1003.67
2018-06-22T02:34:08.675Z,1003.66
2018-06-22T02:35:08.672Z,1003.69
2018-06-22T02:36:08.671Z,1003.67
2018-06-22T02:37:08.670Z,1003.65
2018-06-22T02:38:08.668Z,1003.66
2018-06-22T02:39:08.666Z,1003.64
2018-06-22T02:40:08.668Z,1003.66
2018-06-22T02:41:08.663Z,1003.63
2018-06-22T02:42:08.764Z,1003.61
2018-06-22T02:43:08.668Z,1003.61
2018-06-22T02:44:08.659Z,1003.62
2018-06-22T02:45:08.657Z,1003.63
2018-06-22T02:46:08.655Z,1003.59
2018-06-22T02:47:08.656Z,1003.59
2018-06-22T02:48:08.651Z,1003.57
2018-06-22T02:49:08.650Z,1003.60
2018-06-22T02:50:08.651Z,1003.56
2018-06-22T02:51:08.646Z,1003.59
2018-06-22T02:52:08.646Z,1003.56
2018-06-22T02:53:08.642Z,1003.53
2018-06-22T02:54:08.642Z,1003.53
2018-06-22T02:55:08.640Z,1003.51
2018-06-22T02:56:08.639Z,1003.51
2018-06-22T02:57:08.636Z,1003.51
2018-06-22T02:58:08.637Z,1003.51
2018-06-22T02:59:08.632Z,1003.47
2018-06-22T03:00:08.631Z,1003.47
2018-06-22T03:01:08.631Z,1003.49
2018-06-22T03:02:08.628Z,1003.50
2018-06-22T03:03:08.626Z,1003.52
2018-06-22T03:04:08.624Z,1003.45
2018-06-22T03:05:08.624Z,1003.42
2018-06-22T03:06:08.622Z,1003.45
2018-06-22T03:07:08.618Z,1003.48
2018-06-22T03:08:08.618Z,1003.53
2018-06-22T03:09:08.613Z,1003.47
2018-06-22T03:10:08.613Z,1003.48
2018-06-22T03:11:08.612Z,1003.45
2018-06-22T03:12:08.611Z,1003.48
2018-06-22T03:13:08.609Z,1003.42
2018-06-22T03:14:08.607Z,1003.46
2018-06-22T03:15:08.605Z,1003.50
2018-06-22T03:16:08.602Z,1003.43
2018-06-22T03:17:08.600Z,1003.44
2018-06-22T03:18:36.169Z,1003.41
2018-06-22T03:19:08.596Z,1003.42
2018-06-22T03:20:08.597Z,1003.45
2018-06-22T03:21:08.593Z,1003.46
2018-06-22T03:22:08.592Z,1003.44
2018-06-22T03:23:08.602Z,1003.37
2018-06-22T03:24:08.586Z,1003.40
2018-06-22T03:25:08.586Z,1003.36
2018-06-22T03:26:08.586Z,1003.41
2018-06-22T03:27:08.583Z,1003.40
2018-06-22T03:28:08.585Z,1003.35
2018-06-22T03:29:08.580Z,1003.38
2018-06-22T03:30:08.579Z,1003.41
2018-06-22T03:31:08.576Z,1003.39
2018-06-22T03:32:08.603Z,1003.33
2018-06-22T03:33:08.574Z,1003.35
2018-06-22T03:34:08.570Z,1003.32
2018-06-22T03:35:08.570Z,1003.30
2018-06-22T03:36:08.568Z,1003.32
2018-06-22T03:37:08.566Z,1003.32
2018-06-22T03:38:08.590Z,1003.32
2018-06-22T03:39:08.561Z,1003.32
2018-06-22T03:40:08.559Z,1003.32
2018-06-22T03:41:08.557Z,1003.29
2018-06-22T03:42:08.557Z,1003.30
2018-06-22T03:43:08.556Z,1003.30
2018-06-22T03:44:08.552Z,1003.33
2018-06-22T03:45:08.554Z,1003.41
2018-06-22T03:46:08.551Z,1003.32
2018-06-22T03:47:08.548Z,1003.30
2018-06-22T03:48:08.546Z,1003.27
2018-06-22T03:49:08.545Z,1003.24
2018-06-22T03:50:08.542Z,1003.24
2018-06-22T03:51:08.541Z,1003.24
2018-06-22T03:52:08.543Z,1003.23
2018-06-22T03:53:08.538Z,1003.26
2018-06-22T03:54:08.536Z,1003.23
2018-06-22T03:55:08.535Z,1003.25
2018-06-22T03:56:08.535Z,1003.23
2018-06-22T03:57:08.532Z,1003.22
2018-06-22T03:58:08.530Z,1003.16
2018-06-22T03:59:08.528Z,1003.15
2018-06-22T04:00:08.528Z,1003.18
2018-06-22T04:01:08.528Z,1003.20
2018-06-22T04:02:08.524Z,1003.18
2018-06-22T04:03:08.529Z,1003.20
2018-06-22T04:04:08.522Z,1003.13
2018-06-22T04:05:08.531Z,1003.13
2018-06-22T04:06:08.522Z,1003.19
2018-06-22T04:07:08.517Z,1003.17
2018-06-22T04:08:08.580Z,1003.17
2018-06-22T04:09:08.514Z,1003.18
2018-06-22T04:10:08.515Z,1003.18
2018-06-22T04:11:08.514Z,1003.15
2018-06-22T04:12:08.512Z,1003.18
2018-06-22T04:13:08.519Z,1003.22
2018-06-22T04:14:08.507Z,1003.21
2018-06-22T04:15:08.506Z,1003.18
2018-06-22T04:16:08.507Z,1003.20
2018-06-22T04:17:08.503Z,1003.16
2018-06-22T04:18:08.507Z,1003.14
2018-06-22T04:19:08.502Z,1003.13
2018-06-22T04:20:08.499Z,1003.15
2018-06-22T04:21:08.498Z,1003.11
2018-06-22T04:22:08.497Z,1003.04
2018-06-22T04:23:08.502Z,1003.04
2018-06-22T04:24:08.494Z,1003.01
2018-06-22T04:25:08.493Z,1003.02
2018-06-22T04:26:08.493Z,1003.06
2018-06-22T04:27:08.493Z,1002.97
2018-06-22T04:28:08.490Z,1002.94
2018-06-22T04:29:08.490Z,1002.95
2018-06-22T04:30:08.487Z,1002.94
2018-06-22T04:31:08.486Z,1002.94
2018-06-22T04:32:08.486Z,1002.92
2018-06-22T04:33:08.485Z,1002.88
2018-06-22T04:34:08.481Z,1002.86
2018-06-22T04:35:08.480Z,1002.90
2018-06-22T04:36:08.480Z,1002.93
2018-06-22T04:37:08.477Z,1002.87
2018-06-22T04:38:08.476Z,1002.87
2018-06-22T04:39:08.481Z,1002.86
2018-06-22T04:40:08.474Z,1002.95
2018-06-22T04:41:08.474Z,1002.95
2018-06-22T04:42:08.470Z,1002.94
2018-06-22T04:43:08.470Z,1002.91
2018-06-22T04:44:08.470Z,1003.04
2018-06-22T04:45:08.467Z,1003.03
2018-06-22T04:46:08.468Z,1002.95
2018-06-22T04:47:08.465Z,1002.92
2018-06-22T04:48:08.468Z,1002.96
2018-06-22T04:49:08.464Z,1003.02
2018-06-22T04:50:08.461Z,1002.99
2018-06-22T04:51:08.460Z,1002.99
2018-06-22T04:52:08.458Z,1002.94
2018-06-22T04:53:08.456Z,1003.03
2018-06-22T04:54:08.482Z,1003.03
2018-06-22T04:55:08.455Z,1003.08
2018-06-22T04:56:08.456Z,1003.06
2018-06-22T04:57:08.451Z,1003.00
2018-06-22T04:58:08.450Z,1003.03
2018-06-22T04:59:08.451Z,1002.93
2018-06-22T05:00:08.448Z,1002.98
2018-06-22T05:01:08.444Z,1003.02
2018-06-22T05:02:08.443Z,1002.95
2018-06-22T05:03:08.442Z,1003.01
2018-06-22T05:04:08.445Z,1003.01
2018-06-22T05:05:08.441Z,1002.99
2018-06-22T05:06:08.439Z,1003.06
2018-06-22T05:07:08.445Z,1003.12
2018-06-22T05:08:08.435Z,1002.96
2018-06-22T05:09:08.433Z,1003.09
2018-06-22T05:10:08.432Z,1003.08
2018-06-22T05:11:08.431Z,1003.02
2018-06-22T05:12:08.432Z,1003.03
2018-06-22T05:13:08.429Z,1003.03
2018-06-22T05:14:08.427Z,1003.03
2018-06-22T05:15:08.426Z,1002.98
2018-06-22T05:16:08.428Z,1002.99
2018-06-22T05:17:08.425Z,1003.03
2018-06-22T05:18:08.422Z,1003.00
2018-06-22T05:19:08.422Z,1003.01
2018-06-22T05:20:08.420Z,1003.04
2018-06-22T05:21:08.420Z,1003.01
2018-06-22T05:22:08.419Z,1002.99
2018-06-22T05:23:08.418Z,1002.95
2018-06-22T05:24:08.421Z,1002.93
2018-06-22T05:25:08.417Z,1002.95
2018-06-22T05:26:08.414Z,1002.90
2018-06-22T05:27:08.414Z,1003.01
2018-06-22T05:28:08.413Z,1003.03
2018-06-22T05:29:08.411Z,1003.00
2018-06-22T05:30:08.410Z,1002.98
2018-06-22T05:31:08.409Z,1002.98
2018-06-22T05:32:08.421Z,1003.00
2018-06-22T05:33:08.406Z,1002.88
2018-06-22T05:34:08.405Z,1002.92
2018-06-22T05:35:08.409Z,1002.92
2018-06-22T05:36:08.448Z,1002.90
2018-06-22T05:37:08.405Z,1002.85
2018-06-22T05:38:08.404Z,1002.83
2018-06-22T05:39:08.405Z,1002.81
2018-06-22T05:40:08.405Z,1002.82
2018-06-22T05:41:08.405Z,1002.80
2018-06-22T05:42:08.416Z,1002.80
2018-06-22T05:43:08.406Z,1002.85
2018-06-22T05:44:08.410Z,1002.79
2018-06-22T05:45:08.407Z,1002.88
2018-06-22T05:46:08.409Z,1002.82
2018-06-22T05:47:08.407Z,1002.93
2018-06-22T05:48:08.408Z,1002.92
2018-06-22T05:49:08.408Z,1002.94
2018-06-22T05:50:08.411Z,1002.94
2018-06-22T05:51:08.417Z,1002.94
2018-06-22T05:52:08.411Z,1002.91
2018-06-22T05:53:08.410Z,1002.96
2018-06-22T05:54:08.417Z,1002.92
2018-06-22T05:55:08.415Z,1002.94
2018-06-22T05:56:08.411Z,1002.96
2018-06-22T05:57:08.418Z,1002.93
2018-06-22T05:58:08.411Z,1002.91
2018-06-22T05:59:08.411Z,1002.85
2018-06-22T06:00:08.413Z,1002.91
2018-06-22T06:01:08.413Z,1002.91
2018-06-22T06:02:08.410Z,1002.94
2018-06-22T06:03:08.414Z,1002.85
2018-06-22T06:04:08.411Z,1002.92
2018-06-22T06:05:08.410Z,1002.99
2018-06-22T06:06:08.411Z,1002.95
2018-06-22T06:07:08.441Z,1002.94
2018-06-22T06:08:08.411Z,1002.88
2018-06-22T06:09:08.413Z,1002.88
2018-06-22T06:10:08.409Z,1002.90
2018-06-22T06:11:08.415Z,1002.82
2018-06-22T06:12:08.421Z,1002.88
2018-06-22T06:13:08.409Z,1002.86
2018-06-22T06:14:08.407Z,1002.81
2018-06-22T06:15:08.422Z,1002.80
2018-06-22T06:16:08.412Z,1002.79
2018-06-22T06:17:08.413Z,1002.78
2018-06-22T06:18:08.408Z,1002.83
2018-06-22T06:19:08.428Z,1002.83
2018-06-22T06:20:08.429Z,1002.81
2018-06-22T06:21:08.413Z,1002.82
2018-06-22T06:22:08.409Z,1002.82
2018-06-22T06:23:08.412Z,1002.78
2018-06-22T06:24:08.407Z,1002.77
2018-06-22T06:25:08.407Z,1002.83
2018-06-22T06:26:08.409Z,1002.80
2018-06-22T06:27:08.432Z,1002.82
2018-06-22T06:28:08.406Z,1002.76
2018-06-22T06:29:08.418Z,1002.77
2018-06-22T06:30:08.407Z,1002.78
2018-06-22T06:31:08.407Z,1002.76
2018-06-22T06:32:08.407Z,1002.81
2018-06-22T06:33:08.410Z,1002.78
2018-06-22T06:34:08.411Z,1002.80
2018-06-22T06:35:08.549Z,1002.75
2018-06-22T06:36:08.408Z,1002.77
2018-06-22T06:37:08.486Z,1002.84
2018-06-22T06:38:08.405Z,1002.82
2018-06-22T06:39:08.406Z,1002.81
2018-06-22T06:40:08.407Z,1002.83
2018-06-22T06:41:08.408Z,1002.83
2018-06-22T06:42:08.406Z,1002.80
2018-06-22T06:43:08.406Z,1002.86
2018-06-22T06:44:08.420Z,1002.83
2018-06-22T06:45:08.413Z,1002.83
2018-06-22T06:46:08.412Z,1002.86
2018-06-22T06:47:08.405Z,1002.88
2018-06-22T06:48:08.406Z,1002.85
2018-06-22T06:49:08.406Z,1002.86
2018-06-22T06:50:08.409Z,1002.90
2018-06-22T06:51:08.406Z,1002.89
2018-06-22T06:52:08.407Z,1002.95
2018-06-22T06:53:08.406Z,1002.93
2018-06-22T06:54:08.405Z,1002.95
2018-06-22T06:55:08.405Z,1002.98
2018-06-22T06:56:08.406Z,1002.94
2018-06-22T06:57:08.402Z,1002.96
2018-06-22T06:58:08.409Z,1002.94
2018-06-22T06:59:08.402Z,1003.00
2018-06-22T07:00:08.403Z,1003.00
2018-06-22T07:01:08.402Z,1003.05
2018-06-22T07:02:08.403Z,1003.14
2018-06-22T07:03:08.406Z,1003.05
2018-06-22T07:04:08.402Z,1003.10
2018-06-22T07:05:08.593Z,1003.12
2018-06-22T07:06:08.402Z,1003.13
2018-06-22T07:07:08.406Z,1003.13
2018-06-22T07:08:08.403Z,1003.16
2018-06-22T07:09:08.401Z,1003.16
2018-06-22T07:10:08.399Z,1003.18
2018-06-22T07:11:08.401Z,1003.10
2018-06-22T07:12:08.399Z,1003.18
2018-06-22T07:13:08.414Z,1003.17
2018-06-22T07:14:08.400Z,1003.19
2018-06-22T07:15:08.398Z,1003.14
2018-06-22T07:16:08.398Z,1003.20
2018-06-22T07:17:08.476Z,1003.22
2018-06-22T07:18:08.483Z,1003.24
2018-06-22T07:19:08.417Z,1003.28
2018-06-22T07:20:08.403Z,1003.28
2018-06-22T07:21:08.395Z,1003.29
2018-06-22T07:22:08.398Z,1003.28
2018-06-22T07:23:08.397Z,1003.32
2018-06-22T07:24:08.397Z,1003.31
2018-06-22T07:25:08.394Z,1003.28
2018-06-22T07:26:08.399Z,1003.28
2018-06-22T07:27:08.400Z,1003.30
2018-06-22T07:28:08.392Z,1003.35
2018-06-22T07:29:08.391Z,1003.36
2018-06-22T07:30:08.392Z,1003.40
2018-06-22T07:31:08.391Z,1003.37
2018-06-22T07:32:08.390Z,1003.43
2018-06-22T07:33:08.389Z,1003.41
2018-06-22T07:34:08.387Z,1003.51
2018-06-22T07:35:08.390Z,1003.49
2018-06-22T07:36:08.388Z,1003.42
2018-06-22T07:37:08.389Z,1003.45
2018-06-22T07:38:09.416Z,1003.42
2018-06-22T07:39:08.409Z,1003.44
2018-06-22T07:40:08.399Z,1003.47
2018-06-22T07:41:09.574Z,1003.46
2018-06-22T07:42:08.381Z,1003.45
2018-06-22T07:43:08.384Z,1003.44
2018-06-22T07:44:08.497Z,1003.43
2018-06-22T07:45:08.710Z,1003.42
2018-06-22T07:46:08.382Z,1003.42
2018-06-22T07:47:08.378Z,1003.39
2018-06-22T07:48:08.380Z,1003.40
2018-06-22T07:49:08.380Z,1003.46
2018-06-22T07:50:08.380Z,1003.40
2018-06-22T07:51:08.375Z,1003.39
2018-06-22T07:52:08.381Z,1003.38
2018-06-22T07:53:08.373Z,1003.35
2018-06-22T07:54:08.382Z,1003.35
2018-06-22T07:55:08.381Z,1003.36
2018-06-22T07:56:08.437Z,1003.32
2018-06-22T07:57:08.920Z,1003.28
2018-06-22T07:58:08.373Z,1003.37
2018-06-22T07:59:08.502Z,1003.30
2018-06-22T08:00:08.368Z,1003.28
2018-06-22T08:01:08.382Z,1003.29
2018-06-22T08:02:08.367Z,1003.25
2018-06-22T08:03:08.366Z,1003.28
2018-06-22T08:04:08.366Z,1003.24
2018-06-22T08:05:08.424Z,1003.27
2018-06-22T08:06:08.421Z,1003.24
2018-06-22T08:07:08.368Z,1003.27
2018-06-22T08:08:08.370Z,1003.26
2018-06-22T08:09:08.364Z,1003.25
2018-06-22T08:10:08.365Z,1003.30
2018-06-22T08:11:08.360Z,1003.29
2018-06-22T08:12:08.506Z,1003.25
2018-06-22T08:13:08.359Z,1003.27
2018-06-22T08:14:08.359Z,1003.26
2018-06-22T08:15:08.359Z,1003.28
2018-06-22T08:16:08.363Z,1003.31
2018-06-22T08:17:08.360Z,1003.33
2018-06-22T08:18:08.357Z,1003.34
2018-06-22T08:19:08.356Z,1003.29
2018-06-22T08:20:08.357Z,1003.32
2018-06-22T08:21:08.356Z,1003.30
2018-06-22T08:22:08.371Z,1003.27
2018-06-22T08:23:08.355Z,1003.29
2018-06-22T08:24:08.354Z,1003.36
2018-06-22T08:25:08.356Z,1003.35
2018-06-22T08:26:08.352Z,1003.34
2018-06-22T08:27:08.352Z,1003.33
2018-06-22T08:28:08.355Z,1003.34
2018-06-22T08:29:08.351Z,1003.34
2018-06-22T08:30:08.352Z,1003.32
2018-06-22T08:31:08.505Z,1003.37
2018-06-22T08:32:08.349Z,1003.37
2018-06-22T08:33:08.350Z,1003.34
2018-06-22T08:34:08.351Z,1003.35
2018-06-22T08:35:08.353Z,1003.36
2018-06-22T08:36:08.348Z,1003.36
2018-06-22T08:37:08.353Z,1003.36
2018-06-22T08:38:08.347Z,1003.39
2018-06-22T08:39:08.348Z,1003.41
2018-06-22T08:40:08.348Z,1003.37
2018-06-22T08:41:08.347Z,1003.39
2018-06-22T08:42:08.449Z,1003.39
2018-06-22T08:43:08.342Z,1003.40
2018-06-22T08:44:08.391Z,1003.39
2018-06-22T08:45:08.560Z,1003.38
2018-06-22T08:46:08.340Z,1003.40
2018-06-22T08:47:08.339Z,1003.34
2018-06-22T08:48:08.338Z,1003.42
2018-06-22T08:49:08.337Z,1003.45
2018-06-22T08:50:08.338Z,1003.45
2018-06-22T08:51:08.336Z,1003.52
2018-06-22T08:52:08.338Z,1003.50
2018-06-22T08:53:08.334Z,1003.45
2018-06-22T08:54:08.335Z,1003.44
2018-06-22T08:55:08.334Z,1003.45
2018-06-22T08:56:08.332Z,1003.49
2018-06-22T08:57:08.399Z,1003.59
2018-06-22T08:58:08.332Z,1003.65
2018-06-22T08:59:08.328Z,1003.60
2018-06-22T09:00:08.336Z,1003.65
2018-06-22T09:01:08.388Z,1003.63
2018-06-22T09:02:08.336Z,1003.56
2018-06-22T09:03:08.324Z,1003.58
2018-06-22T09:04:08.323Z,1003.55
2018-06-22T09:05:08.770Z,1003.64
2018-06-22T09:06:08.319Z,1003.65
2018-06-22T09:07:08.320Z,1003.65
2018-06-22T09:08:08.329Z,1003.67
2018-06-22T09:09:08.321Z,1003.66
2018-06-22T09:10:08.325Z,1003.66
2018-06-22T09:11:08.314Z,1003.64
2018-06-22T09:12:08.314Z,1003.66
2018-06-22T09:13:08.404Z,1003.70
2018-06-22T09:14:08.311Z,1003.65
2018-06-22T09:15:08.309Z,1003.69
2018-06-22T09:16:08.315Z,1003.73
2018-06-22T09:17:08.320Z,1003.71
2018-06-22T09:18:08.590Z,1003.69
2018-06-22T09:19:08.415Z,1003.75
2018-06-22T09:20:08.307Z,1003.62
2018-06-22T09:21:08.324Z,1003.71
2018-06-22T09:22:08.306Z,1003.70
2018-06-22T09:23:08.376Z,1003.66
2018-06-22T09:24:08.459Z,1003.71
2018-06-22T09:25:08.354Z,1003.69
2018-06-22T09:26:08.366Z,1003.69
2018-06-22T09:27:08.309Z,1003.64
2018-06-22T09:28:08.297Z,1003.63
2018-06-22T09:29:08.401Z,1003.65
2018-06-22T09:30:08.513Z,1003.70
2018-06-22T09:31:08.288Z,1003.67
2018-06-22T09:32:08.287Z,1003.62
2018-06-22T09:33:08.337Z,1003.64
2018-06-22T09:34:08.284Z,1003.62
2018-06-22T09:35:08.283Z,1003.66
2018-06-22T09:36:08.286Z,1003.58
2018-06-22T09:37:08.292Z,1003.58
2018-06-22T09:38:08.279Z,1003.53
2018-06-22T09:39:08.284Z,1003.64
2018-06-22T09:40:08.278Z,1003.57
2018-06-22T09:41:08.278Z,1003.60
2018-06-22T09:42:08.318Z,1003.55
2018-06-22T09:43:08.284Z,1003.58
2018-06-22T09:44:08.287Z,1003.56
2018-06-22T09:45:08.330Z,1003.59
2018-06-22T09:46:11.438Z,1003.59
2018-06-22T09:47:08.273Z,1003.60
2018-06-22T09:48:08.273Z,1003.61
2018-06-22T09:49:08.280Z,1003.59
2018-06-22T09:50:08.438Z,1003.61
2018-06-22T09:51:08.270Z,1003.63
2018-06-22T09:52:08.269Z,1003.61
2018-06-22T09:53:08.351Z,1003.67
2018-06-22T09:54:08.461Z,1003.65
2018-06-22T09:55:08.321Z,1003.65
2018-06-22T09:56:08.529Z,1003.67
2018-06-22T09:57:08.263Z,1003.62
2018-06-22T09:58:08.316Z,1003.65
2018-06-22T09:59:08.263Z,1003.67
2018-06-22T10:00:08.260Z,1003.70
2018-06-22T10:01:08.262Z,1003.67
2018-06-22T10:02:08.328Z,1003.67
2018-06-22T10:03:08.626Z,1003.71
2018-06-22T10:04:08.257Z,1003.72
2018-06-22T10:05:08.256Z,1003.66
2018-06-22T10:06:08.735Z,1003.70
2018-06-22T10:07:08.258Z,1003.73
2018-06-22T10:08:08.268Z,1003.76
2018-06-22T10:09:09.469Z,1003.85
2018-06-22T10:10:08.654Z,1003.82
2018-06-22T10:11:08.284Z,1003.83
2018-06-22T10:12:08.252Z,1003.82
2018-06-22T10:13:08.318Z,1003.84
2018-06-22T10:14:08.251Z,1003.85
2018-06-22T10:15:08.341Z,1003.79
2018-06-22T10:16:08.248Z,1003.82
2018-06-22T10:17:08.246Z,1003.79
2018-06-22T10:18:08.398Z,1003.81
2018-06-22T10:19:08.246Z,1003.77
2018-06-22T10:20:08.249Z,1003.83
2018-06-22T10:21:08.246Z,1003.80
2018-06-22T10:22:08.246Z,1003.76
2018-06-22T10:23:08.337Z,1003.81
2018-06-22T10:24:08.293Z,1003.82
2018-06-22T10:25:08.247Z,1003.81
2018-06-22T10:26:08.256Z,1003.83
2018-06-22T10:27:09.237Z,1003.81
2018-06-22T10:28:08.404Z,1003.80
2018-06-22T10:29:08.251Z,1003.73
2018-06-22T10:30:08.251Z,1003.73
2018-06-22T10:31:08.304Z,1003.76
2018-06-22T10:32:08.255Z,1003.78
2018-06-22T10:33:08.255Z,1003.83
2018-06-22T10:34:08.261Z,1003.83
2018-06-22T10:35:08.262Z,1003.82
2018-06-22T10:36:08.266Z,1003.88
2018-06-22T10:37:08.260Z,1003.97
2018-06-22T10:38:08.263Z,1003.91
2018-06-22T10:39:09.267Z,1003.97
2018-06-22T10:40:08.262Z,1003.95
2018-06-22T10:41:08.264Z,1004.01
2018-06-22T10:42:08.265Z,1003.95
2018-06-22T10:43:08.266Z,1003.96
2018-06-22T10:44:08.265Z,1004.00
2018-06-22T10:45:08.267Z,1003.99
2018-06-22T10:46:08.327Z,1003.99
2018-06-22T10:47:08.268Z,1004.00
2018-06-22T10:48:08.621Z,1003.96
2018-06-22T10:49:08.268Z,1004.01
2018-06-22T10:50:08.270Z,1004.01
2018-06-22T10:51:08.268Z,1004.03
2018-06-22T10:52:08.269Z,1004.06
2018-06-22T10:53:08.270Z,1003.98
2018-06-22T10:54:08.299Z,1004.07
2018-06-22T10:55:08.270Z,1004.08
2018-06-22T10:56:08.280Z,1004.01
2018-06-22T10:57:08.270Z,1004.05
2018-06-22T10:58:08.274Z,1004.01
2018-06-22T10:59:08.270Z,1004.10
2018-06-22T11:00:08.271Z,1004.03
2018-06-22T11:01:08.274Z,1004.04
2018-06-22T11:02:08.277Z,1004.04
2018-06-22T11:03:08.272Z,1004.00
2018-06-22T11:04:08.272Z,1004.07
2018-06-22T11:05:09.259Z,1004.08
2018-06-22T11:06:08.324Z,1004.10
2018-06-22T11:07:08.275Z,1004.13
2018-06-22T11:08:08.298Z,1004.11
2018-06-22T11:09:08.274Z,1004.11
2018-06-22T11:10:08.292Z,1004.16
2018-06-22T11:11:08.283Z,1004.15
2018-06-22T11:12:08.298Z,1004.13
2018-06-22T11:13:08.274Z,1004.14
2018-06-22T11:14:08.278Z,1004.17
2018-06-22T11:15:08.359Z,1004.19
2018-06-22T11:16:08.283Z,1004.23
2018-06-22T11:17:08.434Z,1004.21
2018-06-22T11:18:08.277Z,1004.23
2018-06-22T11:19:08.278Z,1004.22
2018-06-22T11:20:08.347Z,1004.33
2018-06-22T11:21:08.339Z,1004.32
2018-06-22T11:22:08.656Z,1004.28
2018-06-22T11:23:08.284Z,1004.29
2018-06-22T11:24:08.281Z,1004.35
2018-06-22T11:25:08.295Z,1004.37
2018-06-22T11:26:08.281Z,1004.31
2018-06-22T11:27:08.358Z,1004.34
2018-06-22T11:28:08.287Z,1004.39
2018-06-22T11:29:08.380Z,1004.32
2018-06-22T11:30:08.451Z,1004.31
2018-06-22T11:31:08.353Z,1004.28
2018-06-22T11:32:08.346Z,1004.29
2018-06-22T11:33:08.437Z,1004.35
2018-06-22T11:34:08.288Z,1004.33
2018-06-22T11:35:08.290Z,1004.35
2018-06-22T11:36:08.567Z,1004.33
2018-06-22T11:37:08.385Z,1004.29
2018-06-22T11:38:08.290Z,1004.28
2018-06-22T11:39:08.292Z,1004.34
2018-06-22T11:40:08.292Z,1004.26
2018-06-22T11:41:08.292Z,1004.26
2018-06-22T11:42:08.294Z,1004.26
2018-06-22T11:43:08.488Z,1004.28
2018-06-22T11:44:08.298Z,1004.25
2018-06-22T11:45:08.298Z,1004.34
2018-06-22T11:46:08.345Z,1004.33
2018-06-22T11:47:08.309Z,1004.32
2018-06-22T11:48:08.334Z,1004.27
2018-06-22T11:49:08.305Z,1004.26
2018-06-22T11:50:08.309Z,1004.38
2018-06-22T11:51:08.342Z,1004.37
2018-06-22T11:52:08.307Z,1004.37
2018-06-22T11:53:08.308Z,1004.32
2018-06-22T11:54:08.310Z,1004.30
2018-06-22T11:55:08.312Z,1004.28
2018-06-22T11:56:08.316Z,1004.27
2018-06-22T11:57:08.315Z,1004.23
2018-06-22T11:58:08.331Z,1004.23
2018-06-22T11:59:08.363Z,1004.24
2018-06-22T12:00:08.322Z,1004.24
2018-06-22T12:01:08.327Z,1004.29
2018-06-22T12:02:08.321Z,1004.30
2018-06-22T12:03:08.820Z,1004.27
2018-06-22T12:04:08.333Z,1004.28
2018-06-22T12:05:08.325Z,1004.28